Time;durP1;ratioP1;P1;durP2;ratioP2;P2;SDS_P1;SDS_P2;PMS_P1;PMS_P2;Temp;Humidity;BMP_temperature;BMP_pressure;BME280_temperature;BME280_humidity;BME280_pressure;Samples;Min_cycle;Max_cycle;Signal;HPM_P1;HPM_P2
2023/12/28 00:00:42;;;;;;;27.17;13.60;;;0.20;99.90;;;;;;5074675;28;20037;-78
2023/12/28 00:03:08;;;;;;;34.28;14.77;;;0.20;99.90;;;;;;5074561;28;20013;-77
2023/12/28 00:05:34;;;;;;;29.58;14.68;;;0.20;99.90;;;;;;5074651;28;20029;-77
2023/12/28 00:08:00;;;;;;;25.67;13.65;;;0.20;99.90;;;;;;5074329;28;20070;-77
2023/12/28 00:10:27;;;;;;;28.05;13.50;;;0.20;99.90;;;;;;5056354;28;20021;-77
2023/12/28 00:12:54;;;;;;;25.80;13.85;;;0.20;99.90;;;;;;5071157;28;20025;-77
2023/12/28 00:15:19;;;;;;;28.25;13.13;;;0.20;99.90;;;;;;5072958;28;20028;-77
2023/12/28 00:17:45;;;;;;;25.40;12.68;;;0.20;99.90;;;;;;5056287;28;20028;-78
2023/12/28 00:20:12;;;;;;;26.15;12.90;;;0.20;99.90;;;;;;5072819;28;20108;-77
2023/12/28 00:22:37;;;;;;;24.67;12.82;;;0.20;99.90;;;;;;5042902;28;20021;-77
2023/12/28 00:25:04;;;;;;;26.52;11.55;;;0.20;99.90;;;;;;5061949;28;20021;-78
2023/12/28 00:27:30;;;;;;;25.05;11.85;;;0.30;99.90;;;;;;5055978;28;20504;-79
2023/12/28 00:29:56;;;;;;;29.50;12.90;;;0.30;99.90;;;;;;5056238;28;20048;-79
2023/12/28 00:32:21;;;;;;;29.27;12.88;;;0.30;99.90;;;;;;5073929;28;20089;-78
2023/12/28 00:34:47;;;;;;;20.02;10.95;;;0.30;99.90;;;;;;5056029;28;20029;-78
2023/12/28 00:37:13;;;;;;;24.10;11.68;;;0.40;99.90;;;;;;5055926;28;20016;-77
2023/12/28 00:39:40;;;;;;;26.67;11.50;;;0.40;99.90;;;;;;5073879;28;20036;-77
2023/12/28 00:42:06;;;;;;;21.85;10.07;;;0.40;99.90;;;;;;5076120;28;20170;-78
2023/12/28 00:44:32;;;;;;;22.52;10.25;;;0.40;99.90;;;;;;5073716;28;20482;-78
2023/12/28 00:46:57;;;;;;;19.58;9.23;;;0.40;99.90;;;;;;5073547;28;20012;-78
2023/12/28 00:49:23;;;;;;;20.48;10.93;;;0.40;99.90;;;;;;5073368;28;20479;-77
2023/12/28 00:51:48;;;;;;;18.85;9.63;;;0.40;99.90;;;;;;5055622;28;20017;-77
2023/12/28 00:54:14;;;;;;;20.63;10.77;;;0.40;99.90;;;;;;5073579;28;20592;-78
2023/12/28 00:56:40;;;;;;;24.77;10.98;;;0.40;99.90;;;;;;5073441;28;20021;-77
2023/12/28 00:59:05;;;;;;;25.23;10.43;;;0.40;99.90;;;;;;5073614;28;20417;-77
2023/12/28 01:01:31;;;;;;;22.50;11.15;;;0.30;99.90;;;;;;5073028;28;20086;-78
2023/12/28 01:03:57;;;;;;;23.67;11.77;;;0.30;99.90;;;;;;5072200;28;20023;-77
2023/12/28 01:06:27;;;;;;;24.05;11.48;;;0.30;99.90;;;;;;5071961;28;20025;-78
2023/12/28 01:08:53;;;;;;;26.20;11.45;;;0.30;99.90;;;;;;5055160;28;20055;-77
2023/12/28 01:11:18;;;;;;;28.95;12.05;;;0.30;99.90;;;;;;5058234;28;20059;-78
2023/12/28 01:13:44;;;;;;;25.83;12.05;;;0.30;99.90;;;;;;5065577;28;20025;-78
2023/12/28 01:16:12;;;;;;;27.25;11.57;;;0.30;99.90;;;;;;5055309;28;20386;-78
2023/12/28 01:18:38;;;;;;;24.77;10.60;;;0.30;99.90;;;;;;5072819;28;20024;-77
2023/12/28 01:21:04;;;;;;;26.20;11.15;;;0.30;99.90;;;;;;5054858;28;20036;-78
2023/12/28 01:23:30;;;;;;;23.13;10.68;;;0.40;99.90;;;;;;5054815;28;20471;-78
2023/12/28 01:25:56;;;;;;;18.70;10.93;;;0.30;99.90;;;;;;5055203;28;20028;-77
2023/12/28 01:28:22;;;;;;;22.75;10.40;;;0.30;99.90;;;;;;5054194;28;20012;-77
2023/12/28 01:30:47;;;;;;;22.15;10.95;;;0.30;99.90;;;;;;5071708;28;20030;-77
2023/12/28 01:33:13;;;;;;;22.67;11.32;;;0.30;99.90;;;;;;5071571;28;20402;-78
2023/12/28 01:35:38;;;;;;;23.25;10.00;;;0.30;99.90;;;;;;5067484;28;20029;-78
2023/12/28 01:38:05;;;;;;;20.67;10.15;;;0.20;99.90;;;;;;5084913;28;20391;-77
2023/12/28 01:40:30;;;;;;;21.15;10.63;;;0.20;99.90;;;;;;5055388;28;20491;-78
2023/12/28 01:42:56;;;;;;;16.92;9.90;;;0.10;99.90;;;;;;5084147;28;20066;-77
2023/12/28 01:45:22;;;;;;;23.00;10.18;;;0.10;99.90;;;;;;5077351;28;20434;-78
2023/12/28 01:47:48;;;;;;;20.42;9.85;;;0.10;99.90;;;;;;5079632;28;20028;-76
2023/12/28 01:50:14;;;;;;;19.23;11.23;;;0.10;99.90;;;;;;5057006;28;20029;-77
2023/12/28 01:52:40;;;;;;;19.48;9.70;;;0.10;99.90;;;;;;5072451;28;20419;-78
2023/12/28 01:55:08;;;;;;;24.17;10.70;;;0.10;99.90;;;;;;5059212;28;20020;-78
2023/12/28 01:57:34;;;;;;;23.88;10.40;;;0.10;99.90;;;;;;5072386;28;20031;-79
2023/12/28 02:00:02;;;;;;;26.48;11.10;;;0.10;99.90;;;;;;5072477;28;20020;-79
2023/12/28 02:02:29;;;;;;;24.75;11.27;;;0.00;99.90;;;;;;5053889;28;20036;-77
2023/12/28 02:04:55;;;;;;;19.63;9.10;;;-0.10;99.90;;;;;;5062569;28;20046;-77
2023/12/28 02:07:21;;;;;;;19.95;11.23;;;-0.10;99.90;;;;;;5072394;28;20021;-77
2023/12/28 02:09:47;;;;;;;24.60;12.82;;;-0.10;99.90;;;;;;5072439;28;20020;-79
2023/12/28 02:12:13;;;;;;;18.33;10.15;;;-0.10;99.90;;;;;;5054264;28;20024;-79
2023/12/28 02:14:38;;;;;;;21.15;9.68;;;-0.20;99.90;;;;;;5054511;28;20494;-78
2023/12/28 02:17:13;;;;;;;17.02;9.52;;;-0.30;99.90;;;;;;5072096;28;20484;-78
2023/12/28 02:19:45;;;;;;;17.30;9.90;;;-0.30;99.90;;;;;;5054554;28;20025;-78
2023/12/28 02:22:15;;;;;;;20.70;9.82;;;-0.30;99.90;;;;;;5071876;28;20572;-78
2023/12/28 02:25:08;;;;;;;12.95;8.65;;;-0.40;99.90;;;;;;5072092;28;20029;-78
2023/12/28 02:27:48;;;;;;;18.70;8.57;;;-0.40;99.90;;;;;;5054234;28;20116;-78
2023/12/28 02:30:16;;;;;;;18.77;9.05;;;-0.40;99.90;;;;;;5054128;28;20156;-77
2023/12/28 02:33:03;;;;;;;18.13;9.48;;;-0.40;99.90;;;;;;5064759;28;20045;-77
2023/12/28 02:35:31;;;;;;;17.08;8.02;;;-0.40;99.90;;;;;;5054046;28;20039;-77
2023/12/28 02:38:01;;;;;;;14.55;8.02;;;-0.40;99.90;;;;;;5072186;28;20035;-78
2023/12/28 02:40:30;;;;;;;33.83;14.55;;;-0.50;99.90;;;;;;5071230;28;20027;-78
2023/12/28 02:42:56;;;;;;;32.33;14.98;;;-0.60;99.90;;;;;;5053955;28;20036;-78
2023/12/28 02:45:22;;;;;;;27.58;14.80;;;-0.70;99.90;;;;;;5071721;28;20024;-78
2023/12/28 02:47:47;;;;;;;25.80;14.68;;;-0.70;99.90;;;;;;5073365;28;20417;-78
2023/12/28 02:50:13;;;;;;;28.20;15.13;;;-0.80;99.90;;;;;;5075632;28;20013;-77
2023/12/28 02:52:38;;;;;;;26.17;14.88;;;-0.80;99.90;;;;;;5074802;28;20031;-78
2023/12/28 02:55:05;;;;;;;26.02;12.60;;;-0.80;99.90;;;;;;5076914;28;20103;-78
2023/12/28 02:57:30;;;;;;;21.90;10.88;;;-0.90;99.90;;;;;;5057858;28;20024;-77
2023/12/28 02:59:56;;;;;;;17.15;8.73;;;-0.90;99.90;;;;;;5057674;28;20078;-77
2023/12/28 03:02:23;;;;;;;21.58;12.20;;;-0.90;99.90;;;;;;5075880;28;20039;-77
2023/12/28 03:04:48;;;;;;;29.92;13.93;;;-0.90;99.90;;;;;;5075605;28;20031;-77
2023/12/28 03:07:14;;;;;;;33.33;15.55;;;-1.00;99.90;;;;;;5057654;28;20020;-77
2023/12/28 03:09:39;;;;;;;36.75;20.15;;;-1.00;99.90;;;;;;5066639;28;20394;-79
2023/12/28 03:12:06;;;;;;;53.08;23.98;;;-1.10;99.90;;;;;;5075642;28;20042;-77
2023/12/28 03:14:32;;;;;;;54.53;28.20;;;-1.00;99.90;;;;;;5057336;28;20021;-77
2023/12/28 03:16:57;;;;;;;51.47;26.58;;;-1.10;99.90;;;;;;5061562;28;20082;-77
2023/12/28 03:19:23;;;;;;;44.35;22.73;;;-1.00;99.90;;;;;;5057252;28;20025;-77
2023/12/28 03:21:49;;;;;;;42.17;22.48;;;-1.10;99.90;;;;;;5057268;28;20032;-77
2023/12/28 03:24:14;;;;;;;37.70;19.67;;;-1.00;99.90;;;;;;5057359;28;20027;-78
2023/12/28 03:26:40;;;;;;;34.53;18.77;;;-1.00;99.90;;;;;;5075122;28;20028;-77
2023/12/28 03:29:06;;;;;;;31.33;18.55;;;-1.00;99.90;;;;;;5075444;28;20067;-78
2023/12/28 03:31:32;;;;;;;37.88;19.60;;;-1.10;99.90;;;;;;5081819;28;20024;-78
2023/12/28 03:33:58;;;;;;;38.10;19.08;;;-1.10;99.90;;;;;;5075021;28;20021;-78
2023/12/28 03:36:24;;;;;;;36.80;15.90;;;-1.10;99.90;;;;;;5073354;28;20032;-77
2023/12/28 03:38:50;;;;;;;28.70;15.30;;;-1.10;99.90;;;;;;5056728;28;20074;-77
2023/12/28 03:41:19;;;;;;;26.52;14.40;;;-1.10;99.90;;;;;;5074749;28;20048;-77
2023/12/28 03:43:48;;;;;;;33.28;15.13;;;-1.10;99.90;;;;;;5074588;28;20024;-77
2023/12/28 03:46:14;;;;;;;24.33;12.50;;;-1.10;99.90;;;;;;5074729;28;20028;-77
2023/12/28 03:56:13;;;;;;;16.95;8.73;;;-1.20;99.90;;;;;;5076518;28;20403;-77
2023/12/28 03:58:39;;;;;;;22.13;10.73;;;-1.20;99.90;;;;;;5071549;28;20158;-76
2023/12/28 04:01:04;;;;;;;18.88;10.13;;;-1.20;99.90;;;;;;5056080;28;20119;-78
2023/12/28 04:03:30;;;;;;;18.80;9.77;;;-1.20;99.90;;;;;;5074694;28;20106;-78
2023/12/28 04:05:55;;;;;;;18.42;8.57;;;-1.20;99.90;;;;;;5074375;28;20463;-77
2023/12/28 04:08:21;;;;;;;18.50;9.32;;;-1.30;99.90;;;;;;5074785;28;20028;-77
2023/12/28 04:10:47;;;;;;;19.27;8.75;;;-1.20;99.90;;;;;;5056292;28;20024;-77
2023/12/28 04:13:12;;;;;;;23.35;9.18;;;-1.30;99.90;;;;;;5074206;28;20087;-77
2023/12/28 04:15:41;;;;;;;22.75;10.43;;;-1.20;99.90;;;;;;5074190;28;20063;-77
2023/12/28 04:18:06;;;;;;;28.85;15.60;;;-1.30;99.90;;;;;;5074435;28;20104;-78
2023/12/28 04:20:32;;;;;;;38.78;14.38;;;-1.30;99.90;;;;;;5073999;28;20111;-78
2023/12/28 04:22:57;;;;;;;21.30;12.90;;;-1.40;99.90;;;;;;5075334;28;20028;-78
2023/12/28 04:25:23;;;;;;;28.17;13.48;;;-1.40;99.90;;;;;;5072896;28;20016;-77
2023/12/28 04:27:49;;;;;;;23.75;13.02;;;-1.50;99.90;;;;;;5055918;28;20060;-78
2023/12/28 04:30:15;;;;;;;27.50;14.13;;;-1.50;99.90;;;;;;5074165;28;20089;-78
2023/12/28 04:32:40;;;;;;;26.70;15.75;;;-1.50;99.90;;;;;;5073766;28;20083;-78
2023/12/28 04:35:06;;;;;;;29.05;16.17;;;-1.50;99.90;;;;;;5074157;28;20027;-77
2023/12/28 04:37:32;;;;;;;32.10;16.95;;;-1.50;99.90;;;;;;5073774;28;20371;-77
2023/12/28 04:39:58;;;;;;;26.17;14.07;;;-1.60;99.90;;;;;;5074051;28;20436;-78
2023/12/28 04:42:24;;;;;;;24.80;12.88;;;-1.60;99.90;;;;;;5076855;28;20043;-77
2023/12/28 04:44:49;;;;;;;20.25;10.63;;;-1.60;99.90;;;;;;5055754;28;20025;-77
2023/12/28 04:47:15;;;;;;;19.25;10.52;;;-1.60;99.90;;;;;;5056084;28;20060;-78
2023/12/28 04:49:41;;;;;;;24.75;11.95;;;-1.60;99.90;;;;;;5073665;28;20024;-78
2023/12/28 04:52:06;;;;;;;18.52;11.43;;;-1.60;99.90;;;;;;5073819;28;20017;-77
2023/12/28 04:54:33;;;;;;;17.92;8.90;;;-1.60;99.90;;;;;;5073205;28;20045;-77
2023/12/28 04:56:59;;;;;;;17.33;9.43;;;-1.60;99.90;;;;;;5073708;28;20044;-77
2023/12/28 04:59:25;;;;;;;15.35;9.70;;;-1.60;99.90;;;;;;5055588;28;20027;-77
2023/12/28 05:01:50;;;;;;;13.73;7.55;;;-1.60;99.90;;;;;;5073415;28;20099;-77
2023/12/28 05:04:16;;;;;;;15.70;7.97;;;-1.60;99.90;;;;;;5073192;28;20016;-77
2023/12/28 05:06:42;;;;;;;16.13;8.77;;;-1.60;99.90;;;;;;5055422;28;20020;-78
2023/12/28 05:09:07;;;;;;;14.93;7.85;;;-1.60;99.90;;;;;;5085002;28;20024;-79
2023/12/28 05:11:33;;;;;;;12.77;8.23;;;-1.60;99.90;;;;;;5072720;28;20028;-79
2023/12/28 05:13:58;;;;;;;14.45;7.93;;;-1.60;99.90;;;;;;5073156;28;20023;-78
2023/12/28 05:16:24;;;;;;;14.00;9.38;;;-1.70;99.90;;;;;;5072960;28;20025;-78
2023/12/28 05:18:50;;;;;;;14.45;8.98;;;-1.70;99.90;;;;;;5054354;28;20017;-77
2023/12/28 05:21:15;;;;;;;20.40;9.95;;;-1.70;99.90;;;;;;5072959;28;20032;-77
2023/12/28 05:23:41;;;;;;;27.98;13.70;;;-1.80;99.90;;;;;;5054851;28;20016;-78
2023/12/28 05:26:06;;;;;;;39.60;17.77;;;-1.70;99.90;;;;;;5073400;28;20092;-78
2023/12/28 05:28:33;;;;;;;34.35;16.58;;;-1.80;99.90;;;;;;5072737;28;20103;-77
2023/12/28 05:31:01;;;;;;;30.13;16.40;;;-1.80;99.90;;;;;;5073059;28;20027;-76
2023/12/28 05:33:27;;;;;;;28.77;15.10;;;-1.80;99.90;;;;;;5072430;28;20449;-76
2023/12/28 05:35:52;;;;;;;24.27;12.85;;;-1.80;99.90;;;;;;5073034;28;20021;-76
2023/12/28 05:38:18;;;;;;;18.55;11.02;;;-1.90;99.90;;;;;;5072744;28;20048;-77
2023/12/28 05:40:46;;;;;;;18.27;9.13;;;-1.90;99.90;;;;;;5072964;28;20501;-78
2023/12/28 05:43:12;;;;;;;18.73;9.77;;;-1.90;99.90;;;;;;5072687;28;20024;-77
2023/12/28 05:45:38;;;;;;;18.23;9.20;;;-1.90;99.90;;;;;;5072827;28;20088;-76
2023/12/28 05:48:03;;;;;;;21.75;9.50;;;-2.00;99.90;;;;;;5054776;28;20025;-78
2023/12/28 05:50:29;;;;;;;18.08;9.63;;;-2.00;99.90;;;;;;5072623;28;20020;-78
2023/12/28 05:52:55;;;;;;;20.88;10.80;;;-2.00;99.90;;;;;;5054344;28;20016;-78
2023/12/28 05:55:21;;;;;;;22.42;12.00;;;-2.00;99.90;;;;;;5072457;28;20436;-76
2023/12/28 05:57:47;;;;;;;21.40;12.82;;;-2.00;99.90;;;;;;5072615;28;20496;-76
2023/12/28 06:00:14;;;;;;;24.77;13.02;;;-1.90;99.90;;;;;;5072438;28;20021;-76
2023/12/28 06:02:41;;;;;;;24.33;12.82;;;-1.80;99.90;;;;;;5054246;28;20037;-78
2023/12/28 06:05:07;;;;;;;26.88;15.00;;;-1.70;99.90;;;;;;5054072;28;20029;-76
2023/12/28 06:07:33;;;;;;;22.27;13.07;;;-1.60;99.90;;;;;;5053691;28;20107;-79
2023/12/28 06:09:58;;;;;;;24.67;13.68;;;-1.70;99.90;;;;;;5072419;28;20543;-78
2023/12/28 06:12:24;;;;;;;22.13;12.05;;;-1.70;99.90;;;;;;5072300;28;20036;-79
2023/12/28 06:14:50;;;;;;;27.33;13.85;;;-1.80;99.90;;;;;;5054643;28;20477;-79
2023/12/28 06:17:18;;;;;;;32.15;15.20;;;-1.80;99.90;;;;;;5071424;28;20040;-78
2023/12/28 06:19:43;;;;;;;33.95;14.27;;;-1.80;99.90;;;;;;5054605;28;20136;-79
2023/12/28 06:22:09;;;;;;;29.73;15.95;;;-1.70;99.90;;;;;;5071210;28;20052;-79
2023/12/28 06:24:40;;;;;;;35.47;17.88;;;-1.60;99.90;;;;;;5076701;28;20021;-79
2023/12/28 06:27:06;;;;;;;39.30;19.02;;;-1.60;99.90;;;;;;5072080;28;20013;-76
2023/12/28 06:29:32;;;;;;;38.47;18.17;;;-1.40;99.90;;;;;;5075851;28;20477;-78
2023/12/28 06:31:57;;;;;;;36.92;19.27;;;-1.30;99.90;;;;;;5075966;28;20041;-76
2023/12/28 06:34:23;;;;;;;38.67;18.80;;;-1.20;99.90;;;;;;5073891;28;20435;-77
2023/12/28 06:36:49;;;;;;;39.78;18.65;;;-1.30;99.90;;;;;;5056693;28;20051;-78
2023/12/28 06:39:14;;;;;;;33.30;18.02;;;-1.30;99.90;;;;;;5077917;28;20032;-78
2023/12/28 06:41:40;;;;;;;32.42;17.98;;;-1.40;99.90;;;;;;5056672;28;20513;-78
2023/12/28 06:44:05;;;;;;;39.88;22.17;;;-1.40;99.90;;;;;;5075373;28;20024;-76
2023/12/28 06:46:31;;;;;;;34.83;18.92;;;-1.40;99.90;;;;;;5075133;28;20021;-79
2023/12/28 06:48:58;;;;;;;35.55;19.70;;;-1.50;99.90;;;;;;5074099;28;20512;-78
2023/12/28 06:51:25;;;;;;;37.30;19.70;;;-1.50;99.90;;;;;;5074396;28;20031;-76
2023/12/28 06:53:51;;;;;;;50.20;23.75;;;-1.50;99.90;;;;;;5057596;28;20050;-76
2023/12/28 06:56:17;;;;;;;40.35;21.80;;;-1.50;99.90;;;;;;5073928;28;20424;-79
2023/12/28 06:58:43;;;;;;;41.65;20.02;;;-1.50;99.90;;;;;;5075254;28;20016;-78
2023/12/28 07:01:09;;;;;;;42.67;22.15;;;-1.60;99.90;;;;;;5075454;28;20108;-78
2023/12/28 07:03:34;;;;;;;46.08;21.77;;;-1.50;99.90;;;;;;5074277;28;20119;-78
2023/12/28 07:06:00;;;;;;;47.67;23.50;;;-1.50;99.90;;;;;;5075743;28;20028;-79
2023/12/28 07:08:25;;;;;;;41.22;21.33;;;-1.50;99.90;;;;;;5082270;28;20025;-78
2023/12/28 07:10:51;;;;;;;39.67;23.52;;;-1.40;99.90;;;;;;5075888;28;20024;-79
2023/12/28 07:13:17;;;;;;;42.38;23.95;;;-1.40;99.90;;;;;;5075695;28;20032;-77
2023/12/28 07:15:42;;;;;;;46.83;24.60;;;-1.40;99.90;;;;;;5057732;28;20020;-76
2023/12/28 07:18:08;;;;;;;42.97;23.48;;;-1.30;99.90;;;;;;5075698;28;20490;-76
2023/12/28 07:20:34;;;;;;;49.70;24.98;;;-1.30;99.90;;;;;;5057437;28;20025;-78
2023/12/28 07:22:59;;;;;;;45.10;23.92;;;-1.20;99.90;;;;;;5074137;28;20029;-79
2023/12/28 07:25:25;;;;;;;48.10;24.30;;;-1.10;99.90;;;;;;5075464;28;20021;-76
2023/12/28 07:27:51;;;;;;;50.22;24.98;;;-1.10;99.90;;;;;;5057528;28;20029;-79
2023/12/28 07:30:17;;;;;;;45.10;24.83;;;-1.20;99.90;;;;;;5061749;28;20021;-78
2023/12/28 07:32:45;;;;;;;43.58;24.38;;;-1.20;99.90;;;;;;5066178;28;20051;-78
2023/12/28 07:35:11;;;;;;;49.50;27.33;;;-1.10;99.90;;;;;;5074871;28;20016;-78
2023/12/28 07:37:37;;;;;;;43.10;25.45;;;-1.10;99.90;;;;;;5074123;28;20116;-76
2023/12/28 07:40:04;;;;;;;49.88;27.88;;;-1.00;99.90;;;;;;5073846;28;20016;-76
2023/12/28 07:42:30;;;;;;;50.15;27.90;;;-0.90;99.90;;;;;;5056995;28;20036;-78
2023/12/28 07:44:55;;;;;;;60.63;32.83;;;-0.70;99.90;;;;;;5075129;28;20377;-76
2023/12/28 07:47:21;;;;;;;58.88;31.92;;;-0.50;99.90;;;;;;5075371;28;20032;-78
2023/12/28 07:49:47;;;;;;;58.97;33.55;;;-0.40;99.90;;;;;;5075069;28;20013;-79
2023/12/28 07:52:12;;;;;;;70.32;35.67;;;-0.20;99.90;;;;;;5075337;28;20024;-77
2023/12/28 07:54:38;;;;;;;58.70;30.27;;;-0.10;99.90;;;;;;5074819;28;20071;-78
2023/12/28 07:57:04;;;;;;;58.83;33.17;;;0.00;99.90;;;;;;5075059;28;20021;-78
2023/12/28 07:59:30;;;;;;;106.50;57.10;;;0.00;99.90;;;;;;5075907;28;20035;-78
2023/12/28 08:01:56;;;;;;;112.22;59.78;;;0.10;99.90;;;;;;5083205;28;20051;-76
2023/12/28 08:04:21;;;;;;;99.30;51.15;;;0.20;99.90;;;;;;5074681;28;20024;-78
2023/12/28 08:06:47;;;;;;;65.45;36.63;;;0.30;99.90;;;;;;5074870;28;20419;-79
2023/12/28 08:09:13;;;;;;;65.63;35.85;;;0.30;99.90;;;;;;5074681;28;20017;-77
2023/12/28 08:11:38;;;;;;;61.88;34.35;;;0.40;99.90;;;;;;5056807;28;20027;-79
2023/12/28 08:14:04;;;;;;;64.72;32.08;;;0.50;99.90;;;;;;5074328;28;20025;-77
2023/12/28 08:16:30;;;;;;;55.10;32.13;;;0.70;99.90;;;;;;5074409;28;20017;-78
2023/12/28 08:18:56;;;;;;;55.38;30.42;;;0.80;99.90;;;;;;5074013;28;20027;-79
2023/12/28 08:21:21;;;;;;;59.72;31.83;;;0.90;99.90;;;;;;5074531;28;20036;-78
2023/12/28 08:23:47;;;;;;;58.63;31.00;;;1.00;99.90;;;;;;5056037;28;20020;-78
2023/12/28 08:26:12;;;;;;;52.30;30.15;;;1.20;99.90;;;;;;5063820;28;20024;-77
2023/12/28 08:28:38;;;;;;;50.53;29.35;;;1.30;99.90;;;;;;5056296;28;20024;-79
2023/12/28 08:31:04;;;;;;;49.58;28.92;;;1.40;99.90;;;;;;5079276;28;20381;-77
2023/12/28 08:33:30;;;;;;;47.40;26.90;;;1.60;99.90;;;;;;5059193;28;20083;-79
2023/12/28 08:35:55;;;;;;;44.47;24.98;;;1.70;99.90;;;;;;5054117;28;20021;-79
2023/12/28 08:38:21;;;;;;;44.38;25.83;;;1.80;99.90;;;;;;5036090;28;20029;-79
2023/12/28 08:40:46;;;;;;;47.42;25.00;;;1.90;99.90;;;;;;5054049;28;20569;-78
2023/12/28 08:43:12;;;;;;;55.72;26.05;;;2.00;99.90;;;;;;5053869;28;20048;-79
2023/12/28 08:45:38;;;;;;;50.05;27.17;;;2.00;99.90;;;;;;5054588;28;20028;-76
2023/12/28 08:48:04;;;;;;;46.55;25.63;;;2.10;99.90;;;;;;5052216;28;20017;-75
2023/12/28 08:50:30;;;;;;;47.75;23.75;;;2.20;99.90;;;;;;5053219;28;20029;-75
2023/12/28 08:52:56;;;;;;;40.78;23.20;;;2.30;99.90;;;;;;5053910;28;20020;-77
2023/12/28 08:55:22;;;;;;;40.17;22.80;;;2.40;99.90;;;;;;5053871;28;20114;-79
2023/12/28 08:57:47;;;;;;;45.05;22.95;;;2.50;99.90;;;;;;5053690;28;20049;-79
2023/12/28 09:00:16;;;;;;;38.42;22.05;;;2.60;99.90;;;;;;5053737;28;20025;-78
2023/12/28 09:02:42;;;;;;;43.38;21.83;;;2.70;99.90;;;;;;5053422;28;20055;-78
2023/12/28 09:05:09;;;;;;;39.88;22.05;;;2.70;99.90;;;;;;5053944;28;20029;-79
2023/12/28 09:07:36;;;;;;;40.28;23.73;;;2.80;99.90;;;;;;5053241;28;20100;-79
2023/12/28 09:10:02;;;;;;;45.75;25.80;;;2.90;99.90;;;;;;5053731;28;20021;-78
2023/12/28 09:12:28;;;;;;;48.75;27.48;;;2.90;99.90;;;;;;5053423;28;20051;-78
2023/12/28 09:14:54;;;;;;;44.92;24.75;;;3.00;99.90;;;;;;5051687;28;20037;-77
2023/12/28 09:17:23;;;;;;;44.10;23.27;;;3.00;99.90;;;;;;5052773;28;20017;-78
2023/12/28 09:19:48;;;;;;;46.35;26.30;;;3.10;99.90;;;;;;5035222;28;20029;-79
2023/12/28 09:22:14;;;;;;;41.58;21.45;;;3.10;99.90;;;;;;5052757;28;20040;-79
2023/12/28 09:24:39;;;;;;;38.33;19.77;;;3.20;99.90;;;;;;5052860;28;20021;-78
2023/12/28 09:27:05;;;;;;;36.83;20.48;;;3.30;99.90;;;;;;5052892;28;20128;-79
2023/12/28 09:29:31;;;;;;;34.85;20.50;;;3.40;99.90;;;;;;5035234;28;20066;-78
2023/12/28 09:31:57;;;;;;;36.60;19.40;;;3.50;99.90;;;;;;5039702;28;20520;-78
2023/12/28 09:34:22;;;;;;;30.58;17.48;;;3.60;99.90;;;;;;5071809;28;20025;-79
2023/12/28 09:36:48;;;;;;;36.67;18.58;;;3.60;99.90;;;;;;5054807;28;20021;-78
2023/12/28 09:39:14;;;;;;;40.10;21.10;;;3.70;99.90;;;;;;5073202;28;20027;-78
2023/12/28 09:41:49;;;;;;;33.63;17.75;;;3.80;99.90;;;;;;5054876;28;20032;-78
2023/12/28 09:44:16;;;;;;;29.30;16.58;;;3.80;99.90;;;;;;5073183;28;20043;-78
2023/12/28 09:46:42;;;;;;;28.95;18.17;;;3.90;99.90;;;;;;5072583;28;20157;-78
2023/12/28 09:49:09;;;;;;;30.83;16.58;;;4.00;99.90;;;;;;5054688;28;20023;-78
2023/12/28 09:51:35;;;;;;;31.05;17.33;;;4.10;99.90;;;;;;5058115;28;20418;-79
2023/12/28 09:54:03;;;;;;;30.88;15.43;;;4.20;99.90;;;;;;5058255;28;20074;-78
2023/12/28 09:56:29;;;;;;;25.48;15.52;;;4.20;99.90;;;;;;5072582;28;20538;-78
2023/12/28 09:58:56;;;;;;;29.52;15.85;;;4.30;99.90;;;;;;5072239;28;20052;-79
2023/12/28 10:01:22;;;;;;;31.75;17.27;;;4.40;99.90;;;;;;5072691;28;20042;-78
2023/12/28 10:03:48;;;;;;;28.88;16.08;;;4.40;99.90;;;;;;5054589;28;20028;-78
2023/12/28 10:06:15;;;;;;;30.08;16.13;;;4.50;99.90;;;;;;5060957;28;20382;-78
2023/12/28 10:08:49;;;;;;;30.95;17.45;;;4.60;99.90;;;;;;5072608;28;20424;-78
2023/12/28 10:11:18;;;;;;;26.33;15.30;;;4.70;99.90;;;;;;5072731;28;20096;-78
2023/12/28 10:13:45;;;;;;;26.77;15.45;;;4.80;99.90;;;;;;5072370;28;20393;-78
2023/12/28 10:16:11;;;;;;;26.80;13.60;;;4.80;99.90;;;;;;5054772;28;20396;-78
2023/12/28 10:18:42;;;;;;;28.17;15.55;;;4.90;99.90;;;;;;5072069;28;20039;-78
2023/12/28 10:21:08;;;;;;;27.33;14.55;;;5.00;99.90;;;;;;5072501;28;20067;-78
2023/12/28 10:23:34;;;;;;;24.58;14.75;;;5.00;99.90;;;;;;5072332;28;20032;-78
2023/12/28 10:26:00;;;;;;;23.88;13.73;;;5.10;99.90;;;;;;5072578;28;20032;-78
2023/12/28 10:28:25;;;;;;;26.02;15.38;;;5.20;99.90;;;;;;5072416;28;20079;-78
2023/12/28 10:30:57;;;;;;;21.55;12.73;;;5.40;99.90;;;;;;5072537;28;20505;-78
2023/12/28 10:33:23;;;;;;;25.15;13.13;;;5.40;99.90;;;;;;5071961;28;20084;-78
2023/12/28 10:35:52;;;;;;;24.30;12.75;;;5.50;99.90;;;;;;5081450;28;20082;-78
2023/12/28 10:38:19;;;;;;;25.08;12.98;;;5.60;99.90;;;;;;5057501;28;20028;-78
2023/12/28 10:40:45;;;;;;;26.15;14.15;;;5.70;99.90;;;;;;5057365;28;20066;-78
2023/12/28 10:43:15;;;;;;;23.30;13.50;;;5.80;99.90;;;;;;5057541;28;20067;-78
2023/12/28 10:45:46;;;;;;;26.65;14.60;;;6.00;99.90;;;;;;5072806;28;20039;-78
2023/12/28 10:48:12;;;;;;;20.52;11.50;;;6.10;99.90;;;;;;5072092;28;20025;-78
2023/12/28 10:50:51;;;;;;;20.33;11.45;;;6.20;99.90;;;;;;5072218;28;20032;-78
2023/12/28 10:53:59;;;;;;;21.55;10.93;;;6.30;99.90;;;;;;5071559;28;20096;-79
2023/12/28 10:56:41;;;;;;;22.13;11.05;;;6.40;99.90;;;;;;5071887;28;20051;-78
2023/12/28 10:59:44;;;;;;;15.68;9.45;;;6.60;99.90;;;;;;5071882;28;20017;-78
2023/12/28 11:02:14;;;;;;;15.77;8.73;;;6.60;99.90;;;;;;5053619;28;20514;-78
2023/12/28 11:04:50;;;;;;;16.65;9.23;;;6.70;99.90;;;;;;5053812;28;20100;-79
2023/12/28 11:07:18;;;;;;;13.80;8.40;;;6.80;99.90;;;;;;5078729;28;20024;-79
2023/12/28 11:09:44;;;;;;;18.48;8.80;;;7.00;99.90;;;;;;5056835;28;20052;-78
2023/12/28 11:12:11;;;;;;;13.27;7.25;;;7.20;99.90;;;;;;5074307;28;20016;-79
2023/12/28 11:14:40;;;;;;;11.68;7.90;;;7.30;99.90;;;;;;5057608;28;20044;-78
2023/12/28 11:17:05;;;;;;;15.23;7.07;;;7.40;99.90;;;;;;5068245;28;20429;-79
2023/12/28 11:19:33;;;;;;;9.98;6.28;;;7.50;99.70;;;;;;5075778;28;20021;-79
2023/12/28 11:22:01;;;;;;;10.82;6.47;;;7.70;94.00;;;;;;5057247;28;20156;-76
2023/12/28 11:24:28;;;;;;;10.15;6.65;;;7.70;90.60;;;;;;5075586;28;20019;-75
2023/12/28 11:26:54;;;;;;;10.75;5.90;;;7.80;90.90;;;;;;5075448;28;20016;-75
2023/12/28 11:29:20;;;;;;;8.38;5.80;;;8.00;87.60;;;;;;5075729;28;20024;-76
2023/12/28 11:31:58;;;;;;;11.32;6.03;;;8.00;85.50;;;;;;5074914;28;20105;-75
2023/12/28 11:34:31;;;;;;;11.07;6.57;;;8.10;84.10;;;;;;5075574;28;20492;-75
2023/12/28 11:37:01;;;;;;;9.57;5.97;;;8.30;85.00;;;;;;5075015;28;20017;-76
2023/12/28 11:39:35;;;;;;;8.13;5.30;;;8.50;82.80;;;;;;5075201;28;20021;-76
2023/12/28 11:42:05;;;;;;;10.32;6.03;;;8.60;79.50;;;;;;5063152;28;20045;-75
2023/12/28 11:44:37;;;;;;;8.30;5.35;;;8.60;78.60;;;;;;5075186;28;20024;-77
2023/12/28 11:47:17;;;;;;;9.77;6.03;;;8.60;77.10;;;;;;5057221;28;20070;-78
2023/12/28 11:49:45;;;;;;;9.60;5.50;;;8.60;77.10;;;;;;5073370;28;20278;-75
2023/12/28 11:52:25;;;;;;;9.63;5.55;;;8.60;77.00;;;;;;5075199;28;20044;-75
2023/12/28 11:54:51;;;;;;;10.45;5.85;;;8.50;76.90;;;;;;5074894;28;20493;-76
2023/12/28 11:57:17;;;;;;;9.38;5.45;;;8.40;77.10;;;;;;5074997;28;20031;-75
2023/12/28 11:59:43;;;;;;;12.55;6.25;;;8.40;77.10;;;;;;5067844;28;20025;-75
2023/12/28 12:02:10;;;;;;;8.50;5.95;;;8.30;78.00;;;;;;5071243;28;20032;-75
2023/12/28 12:04:36;;;;;;;9.80;6.47;;;8.40;77.20;;;;;;5051925;28;20028;-75
2023/12/28 12:07:03;;;;;;;8.40;5.60;;;8.50;77.00;;;;;;5074214;28;20508;-75
2023/12/28 12:09:34;;;;;;;8.10;5.03;;;8.50;77.40;;;;;;5056937;28;20017;-75
2023/12/28 12:12:03;;;;;;;8.85;5.50;;;8.50;77.00;;;;;;5074619;28;20386;-76
2023/12/28 12:14:30;;;;;;;13.48;7.00;;;8.60;76.00;;;;;;5056729;28;20054;-75
2023/12/28 12:16:58;;;;;;;10.70;5.50;;;8.60;76.00;;;;;;5074205;28;20059;-76
2023/12/28 12:19:25;;;;;;;10.50;5.90;;;8.60;75.20;;;;;;5074156;28;20371;-76
2023/12/28 12:21:55;;;;;;;14.68;7.32;;;8.60;75.30;;;;;;5073158;28;20040;-75
2023/12/28 12:24:23;;;;;;;44.67;17.88;;;8.70;75.30;;;;;;5074688;28;20100;-75
2023/12/28 12:26:50;;;;;;;147.55;46.55;;;8.80;75.80;;;;;;5074198;28;20039;-75
2023/12/28 12:29:17;;;;;;;21.52;8.82;;;8.80;75.40;;;;;;5074379;28;20358;-75
2023/12/28 12:31:44;;;;;;;56.15;21.48;;;8.80;74.80;;;;;;5055492;28;20063;-79
2023/12/28 12:34:10;;;;;;;13.75;7.20;;;8.80;75.30;;;;;;5066449;28;20048;-76
2023/12/28 12:36:40;;;;;;;10.05;5.32;;;8.80;74.70;;;;;;5073582;28;20016;-76
2023/12/28 12:39:06;;;;;;;9.43;5.68;;;8.70;75.50;;;;;;5056116;28;20478;-75
2023/12/28 12:41:33;;;;;;;11.32;7.45;;;8.70;75.40;;;;;;5055446;28;20039;-75